Details From CYEV - Inuvik Mike Zubko
To CYVQ - Norman Wells
Flight Number -
Tags Decoded
Created
Modified
Stats Distance 240 nm / 445 km
Max Altitude 0 ft / 0 m
Waypoints 2
Social Downloads 1
Likes 0
Share VATSIM

Download

Looking for another format? Having issues loading an existing format? Contact us
Advertisement - Login to hide

Notes

Decoded

Route

CYEV CYVQ

ID Type Via Altitude Latitude Longitude Leg Dist Tot Dist Heading (true) Name
O CYEV APT - 0 ft / 0 m 68.30319˚ -133.50528˚ - 0 nm - -
O CYVQ APT - 0 ft / 0 m 65.28556˚ -126.81539˚ 240 nm 240 nm 136° / 142° -

Altitude Profile

Advertisement - Login to hide

Weather


0- 5 10 15 20 25 30 35+ Temperature / ° C

Clouds and Precipitation
Forecast for 2018-05-21 06:00 UTC. Updated 3 hours ago

Ground ~20,000 ft ~40,000 ft Winds

CYEV

Details ICAO CYEV (YEV)
Name INUVIK MIKE ZUBKO
Region Canada
Timezone America/Inuvik (UTC-6.0)
Stats Elevation 224 ft / 68 m (AMSL)
Location 68.303792° -133.483167°
Runways 1
Magnetic Variation 21.358° E

METAR

CYEV 210700Z 05011G17KT 15SM FEW250 06/M02 A2977 RMK CI2 SLP086

Decode

TAF

TAF CYEV 210642Z 2107/2119 05012G22KT P6SM SCT250 BECMG 2107/2109 06010KT FM210900 05010KT P6SM FEW005 SCT250 PROB30 2109/2113 3/4SM BR BKN004 FM211500 07007KT P6SM BKN120 RMK NXT FCST BY 211300Z

Decode

Departure Runways

ID Width Length Bearing (true) Bearing (mag) Surface Threshold Offset Overrun Length
06 150 ft / 46 m 5,982 ft / 1,823 m 85.80° 64.44° Asphalt 0 ft / 0 m 0 ft / 0 m
24 150 ft / 46 m 5,982 ft / 1,823 m 265.84° 244.48° Asphalt 0 ft / 0 m 0 ft / 0 m

CYVQ

Details ICAO CYVQ (YVQ)
Name NORMAN WELLS
Region Canada
Timezone America/Yellowknife (UTC-6.0)
Stats Elevation 238 ft / 73 m (AMSL)
Location 65.281616° -126.798222°
Runways 1
Magnetic Variation 20.840° E

METAR

CYVQ 210700Z 11014KT 30SM FEW150 SCT170 SCT190 BKN220 BKN250 10/00 A2967 RMK AC1AC3AC1CI2CI1 AC TR SLP053

Decode

TAF

TAF TAF CYVQ 210538Z 2106/2118 12015G25KT P6SM SCT120 BKN210 TEMPO 2106/2110 BKN120 OVC210 BECMG 2107/2109 11012KT FM211000 11012KT P6SM SCT060 BKN120 TEMPO 2110/2118 P6SM -SHRA BKN060 OVC120 RMK NXT FCST BY 211200Z

Decode

Destination Runways

ID Width Length Bearing (true) Bearing (mag) Surface Threshold Offset Overrun Length
09 150 ft / 46 m 5,977 ft / 1,822 m 118.74° 97.90° Asphalt 0 ft / 0 m 0 ft / 0 m
27 150 ft / 46 m 5,977 ft / 1,822 m 298.78° 277.94° Asphalt 0 ft / 0 m 0 ft / 0 m

Popular Alternatives